Time;durP1;ratioP1;P1;durP2;ratioP2;P2;SDS_P1;SDS_P2;PMS_P1;PMS_P2;Temp;Humidity;BMP_temperature;BMP_pressure;BME280_temperature;BME280_humidity;BME280_pressure;Samples;Min_cycle;Max_cycle;Signal;HPM_P1;HPM_P2
2023/04/15 00:00:19;;;;;;;11.50;8.90;;;;;;;11.27;64.34;99263.48;109638;1269;21991;-80
2023/04/15 00:03:20;;;;;;;11.00;8.80;;;;;;;11.16;64.88;99269.52;110601;1265;23385;-81
2023/04/15 00:06:03;;;;;;;10.20;8.10;;;;;;;11.07;65.43;99268.27;110803;1265;23031;-80
2023/04/15 00:08:44;;;;;;;12.70;9.30;;;;;;;11.02;65.87;99267.36;110816;1265;22044;-80
2023/04/15 00:11:47;;;;;;;9.40;8.40;;;;;;;10.96;66.28;99267.16;110643;1265;23596;-80
2023/04/15 00:14:26;;;;;;;10.70;9.60;;;;;;;10.92;66.40;99267.56;110328;1265;21981;-79
2023/04/15 00:17:22;;;;;;;;;;;;;;;;;;;;;
2023/04/15 00:20:00;;;;;;;12.30;9.30;;;;;;;10.81;66.77;99274.95;110052;1270;21981;-79
2023/04/15 00:22:38;;;;;;;13.00;10.60;;;;;;;10.78;67.20;99279.86;109972;1270;23681;-78
2023/04/15 00:25:40;;;;;;;13.10;10.30;;;;;;;10.76;67.43;99283.23;109639;1264;23748;-81
2023/04/15 00:28:29;;;;;;;11.40;9.80;;;;;;;10.73;67.71;99286.37;109890;1270;21984;-80
2023/04/15 00:31:28;;;;;;;;;;;;;;;;;;;;;
2023/04/15 00:34:15;;;;;;;18.10;10.50;;;;;;;10.67;68.08;99290.52;109986;1270;21999;-79
2023/04/15 00:36:55;;;;;;;13.40;10.20;;;;;;;10.63;68.27;99293.17;109778;1270;23783;-78
2023/04/15 00:39:26;;;;;;;12.30;10.90;;;;;;;10.59;68.50;99288.19;109837;1270;21987;-78
2023/04/15 00:42:10;;;;;;;11.40;9.90;;;;;;;10.53;68.79;99284.86;110031;1270;21976;-78
2023/04/15 00:44:46;;;;;;;11.40;10.20;;;;;;;10.52;69.08;99292.38;109759;1270;22749;-78
2023/04/15 00:47:25;;;;;;;14.50;9.40;;;;;;;10.50;69.26;99288.32;109830;1270;22068;-79
2023/04/15 00:50:13;;;;;;;12.80;10.30;;;;;;;10.46;69.54;99292.35;109800;1270;21997;-79
2023/04/15 00:52:44;;;;;;;11.30;9.60;;;;;;;10.40;69.74;99290.39;109176;1276;22227;-80
2023/04/15 00:55:20;;;;;;;10.90;8.80;;;;;;;10.37;70.03;99292.99;109602;1268;21886;-81
2023/04/15 00:58:01;;;;;;;11.80;9.00;;;;;;;10.34;70.27;99291.93;109875;1270;22004;-80
2023/04/15 01:00:48;;;;;;;14.80;9.70;;;;;;;10.31;70.49;99288.97;109888;1270;21972;-79
2023/04/15 01:03:22;;;;;;;11.50;10.00;;;;;;;10.28;70.66;99281.66;109775;1270;21969;-79
2023/04/15 01:05:59;;;;;;;12.40;9.90;;;;;;;10.26;70.96;99280.04;109623;1269;23037;-81
2023/04/15 01:08:36;;;;;;;12.50;9.60;;;;;;;10.25;71.13;99283.58;109283;1264;22001;-79
2023/04/15 01:11:13;;;;;;;11.90;10.40;;;;;;;10.20;71.43;99290.06;109249;1275;22086;-78
2023/04/15 01:13:49;;;;;;;13.30;11.10;;;;;;;10.14;71.71;99284.96;109057;1275;23050;-80
2023/04/15 01:16:27;;;;;;;13.40;10.70;;;;;;;10.13;71.86;99284.14;109546;1270;22048;-82
2023/04/15 01:19:01;;;;;;;17.40;11.80;;;;;;;10.12;71.96;99287.02;109982;1270;22083;-82
2023/04/15 01:21:49;;;;;;;15.60;10.60;;;;;;;10.09;72.42;99285.60;109643;1270;23701;-81
2023/04/15 01:24:55;;;;;;;13.50;9.50;;;;;;;10.06;72.52;99281.45;109341;1276;21980;-80
2023/04/15 01:27:46;;;;;;;12.90;11.00;;;;;;;10.03;72.59;99280.20;109503;1271;21986;-80
2023/04/15 01:30:24;;;;;;;13.10;10.80;;;;;;;10.04;72.87;99283.44;109598;1271;22052;-81
2023/04/15 01:33:01;;;;;;;13.10;10.50;;;;;;;10.06;72.87;99280.05;109285;1276;21988;-79
2023/04/15 01:35:39;;;;;;;14.00;10.30;;;;;;;10.07;73.00;99282.21;109460;1276;23753;-79
2023/04/15 01:38:30;;;;;;;11.10;10.00;;;;;;;10.06;73.09;99283.83;109003;1280;23706;-78
2023/04/15 01:41:06;;;;;;;14.50;12.10;;;;;;;10.07;73.22;99289.17;108798;1280;23739;-79
2023/04/15 01:43:41;;;;;;;13.00;11.60;;;;;;;10.09;73.33;99289.79;108944;1280;22629;-79
2023/04/15 01:46:14;;;;;;;11.90;10.00;;;;;;;10.10;73.34;99287.27;108693;1283;22050;-80
2023/04/15 01:48:54;;;;;;;12.50;11.00;;;;;;;10.09;73.38;99284.55;108811;1283;22079;-80
2023/04/15 01:51:36;;;;;;;13.40;10.90;;;;;;;10.10;73.36;99287.13;108662;1278;22008;-79
2023/04/15 01:54:11;;;;;;;12.30;11.10;;;;;;;10.09;73.51;99289.42;108905;1273;22461;-79
2023/04/15 01:56:45;;;;;;;15.40;13.00;;;;;;;10.11;73.53;99283.24;109102;1277;22010;-79
2023/04/15 01:59:24;;;;;;;13.70;12.30;;;;;;;10.15;73.57;99284.61;109263;1274;22001;-80
2023/04/15 02:02:05;;;;;;;12.50;11.20;;;;;;;10.15;73.52;99285.30;108885;1277;21990;-78
2023/04/15 02:04:49;;;;;;;12.50;10.70;;;;;;;10.14;73.71;99292.46;109211;1270;21787;-78
2023/04/15 02:07:31;;;;;;;14.00;12.60;;;;;;;10.14;73.82;99293.34;109325;1268;23071;-79
2023/04/15 02:10:10;;;;;;;13.30;11.90;;;;;;;10.14;73.84;99288.27;110097;1265;22381;-80
2023/04/15 02:12:45;;;;;;;12.50;11.40;;;;;;;10.15;73.78;99286.15;110168;1268;21973;-79
2023/04/15 02:15:25;;;;;;;15.60;14.00;;;;;;;10.16;73.82;99289.77;109698;1268;22312;-80
2023/04/15 02:18:09;;;;;;;14.80;12.70;;;;;;;10.16;73.83;99288.90;109696;1265;21966;-79
2023/04/15 02:20:56;;;;;;;14.20;12.70;;;;;;;10.15;73.70;99285.97;110414;1265;21977;-79
2023/04/15 02:23:32;;;;;;;18.40;13.70;;;;;;;10.15;73.72;99288.08;110581;1265;21967;-79
2023/04/15 02:26:19;;;;;;;14.70;13.20;;;;;;;10.13;73.98;99287.63;110802;1264;22957;-79
2023/04/15 02:28:59;;;;;;;18.80;14.50;;;;;;;10.11;73.94;99285.83;110529;1258;21966;-78
2023/04/15 02:31:41;;;;;;;17.00;13.60;;;;;;;10.11;74.01;99284.78;110602;1264;22965;-79
2023/04/15 02:34:15;;;;;;;14.30;12.70;;;;;;;10.11;74.04;99283.24;110711;1259;23983;-80
2023/04/15 02:36:56;;;;;;;16.00;12.30;;;;;;;10.11;74.19;99287.94;110666;1263;21982;-80
2023/04/15 02:39:36;;;;;;;14.60;13.00;;;;;;;10.13;74.13;99293.56;110083;1264;23019;-79
2023/04/15 02:42:12;;;;;;;13.60;12.30;;;;;;;10.11;74.07;99295.59;109238;1267;23016;-80
2023/04/15 02:44:53;;;;;;;13.60;12.30;;;;;;;10.09;74.15;99295.00;108990;1279;21921;-80
2023/04/15 02:47:39;;;;;;;13.80;12.50;;;;;;;10.08;74.29;99290.03;109007;1279;23054;-78
2023/04/15 02:50:22;;;;;;;13.70;11.90;;;;;;;10.08;74.12;99290.02;108472;1284;22855;-79
2023/04/15 02:53:04;;;;;;;12.40;11.10;;;;;;;10.10;73.98;99285.23;108545;1284;23040;-80
2023/04/15 02:55:52;;;;;;;14.50;13.00;;;;;;;10.05;74.16;99284.06;108686;1279;22115;-79
2023/04/15 02:58:33;;;;;;;13.10;11.80;;;;;;;10.02;74.16;99283.70;108611;1281;23072;-80
2023/04/15 03:01:23;;;;;;;12.30;11.10;;;;;;;10.02;74.18;99284.77;109195;1270;21972;-80
2023/04/15 03:04:07;;;;;;;12.00;10.40;;;;;;;10.00;74.43;99286.61;109733;1269;21983;-79
2023/04/15 03:06:45;;;;;;;13.90;11.60;;;;;;;9.99;74.37;99284.75;109870;1264;21982;-79
2023/04/15 03:09:31;;;;;;;11.70;10.50;;;;;;;10.00;74.35;99283.48;110597;1264;21976;-78
2023/04/15 03:12:23;;;;;;;13.10;11.70;;;;;;;9.99;74.26;99284.05;110620;1264;21975;-79
2023/04/15 03:15:05;;;;;;;;;;;;;;;9.99;74.29;99285.44;110584;1265;23609;-79
2023/04/15 03:17:51;;;;;;;13.20;11.80;;;;;;;9.92;74.43;99291.20;110779;1265;21973;-79
2023/04/15 03:20:49;;;;;;;11.20;10.20;;;;;;;9.93;74.52;99296.02;110669;1264;21980;-80
2023/04/15 03:23:21;;;;;;;11.80;10.80;;;;;;;9.96;74.52;99302.45;110429;1266;22988;-79
2023/04/15 03:26:06;;;;;;;10.80;9.20;;;;;;;9.98;74.39;99301.98;109927;1268;23055;-78
2023/04/15 03:28:42;;;;;;;11.60;10.50;;;;;;;10.02;74.46;99300.25;110054;1268;21994;-79
2023/04/15 03:31:19;;;;;;;12.00;10.30;;;;;;;10.03;74.35;99307.46;110399;1268;21957;-79
2023/04/15 03:33:53;;;;;;;10.70;9.80;;;;;;;10.06;74.38;99309.61;109943;1267;23703;-80
2023/04/15 03:36:37;;;;;;;10.50;9.60;;;;;;;10.07;74.42;99308.82;110329;1266;21998;-80
2023/04/15 03:39:16;;;;;;;10.40;9.30;;;;;;;10.07;74.45;99311.80;109678;1272;23602;-79
2023/04/15 03:41:52;;;;;;;13.20;10.20;;;;;;;10.08;74.38;99314.35;109402;1274;23103;-79
2023/04/15 03:44:31;;;;;;;11.40;10.30;;;;;;;10.09;74.43;99313.23;109531;1274;23618;-79
2023/04/15 03:47:06;;;;;;;11.90;10.10;;;;;;;10.09;74.34;99314.27;109561;1268;21961;-79
2023/04/15 03:49:41;;;;;;;11.50;10.30;;;;;;;10.12;74.35;99313.29;109095;1277;22320;-80
2023/04/15 03:52:27;;;;;;;13.90;10.80;;;;;;;10.12;74.31;99309.05;109180;1278;23719;-80
2023/04/15 03:54:59;;;;;;;11.80;10.60;;;;;;;10.15;74.13;99311.20;109202;1277;22281;-80
2023/04/15 03:57:48;;;;;;;14.40;10.70;;;;;;;10.17;74.29;99311.23;109508;1274;21998;-78
2023/04/15 04:00:23;;;;;;;12.90;11.30;;;;;;;10.20;74.24;99312.48;109644;1269;23575;-79
2023/04/15 04:03:01;;;;;;;15.50;11.60;;;;;;;10.23;73.99;99315.81;109933;1269;21971;-79
2023/04/15 04:05:49;;;;;;;13.10;11.40;;;;;;;10.23;74.02;99315.68;109459;1275;22737;-80
2023/04/15 04:08:43;;;;;;;12.30;9.80;;;;;;;10.21;74.05;99311.39;109269;1275;24210;-80
2023/04/15 04:11:19;;;;;;;11.30;9.90;;;;;;;10.24;74.02;99319.44;109528;1267;23741;-80
2023/04/15 04:13:58;;;;;;;12.30;9.70;;;;;;;10.26;73.99;99324.85;109556;1270;22006;-78
2023/04/15 04:16:33;;;;;;;12.40;9.80;;;;;;;10.30;73.97;99329.36;109635;1270;22120;-79
2023/04/15 04:19:08;;;;;;;12.60;10.50;;;;;;;10.31;73.89;99331.60;109706;1273;21977;-80
2023/04/15 04:21:47;;;;;;;10.60;9.60;;;;;;;10.31;73.86;99329.16;109445;1273;23701;-78
2023/04/15 04:24:28;;;;;;;11.50;10.10;;;;;;;10.33;73.74;99327.33;109749;1265;22089;-78
2023/04/15 04:27:18;;;;;;;11.00;9.90;;;;;;;10.32;73.72;99328.75;109505;1273;24050;-80
2023/04/15 04:30:02;;;;;;;12.00;10.80;;;;;;;10.31;73.70;99331.57;109656;1273;22020;-79
2023/04/15 04:32:45;;;;;;;10.50;9.40;;;;;;;10.32;73.81;99334.86;109167;1276;21998;-79
2023/04/15 04:35:22;;;;;;;10.60;9.70;;;;;;;10.34;73.69;99338.04;109086;1278;23755;-78
2023/04/15 04:38:03;;;;;;;11.50;9.70;;;;;;;10.33;73.65;99339.13;109590;1273;21991;-79
2023/04/15 04:40:55;;;;;;;12.50;11.20;;;;;;;10.30;73.71;99335.80;109022;1278;23836;-80
2023/04/15 04:43:33;;;;;;;10.90;9.90;;;;;;;10.31;73.65;99342.52;109221;1277;21982;-79
2023/04/15 04:46:11;;;;;;;11.40;10.40;;;;;;;10.31;73.65;99341.14;109200;1278;22362;-79
2023/04/15 04:48:58;;;;;;;12.70;11.50;;;;;;;10.31;73.70;99340.43;109172;1278;23612;-80
2023/04/15 04:51:43;;;;;;;10.60;9.70;;;;;;;10.32;73.63;99341.79;109643;1270;22794;-81
2023/04/15 04:54:30;;;;;;;10.90;9.80;;;;;;;10.33;73.75;99342.45;109817;1270;22487;-80
2023/04/15 04:57:16;;;;;;;11.60;10.50;;;;;;;10.35;73.85;99347.77;109625;1270;22359;-79
2023/04/15 05:00:03;;;;;;;12.00;10.90;;;;;;;10.35;73.83;99350.16;109640;1272;24310;-80
2023/04/15 05:02:53;;;;;;;10.10;9.20;;;;;;;10.32;73.81;99351.85;109431;1274;23058;-79
2023/04/15 05:05:39;;;;;;;12.40;10.90;;;;;;;10.32;73.87;99353.62;109294;1274;22017;-79
2023/04/15 05:08:45;;;;;;;13.80;12.40;;;;;;;10.32;73.92;99355.36;109175;1274;21988;-79
2023/04/15 05:11:36;;;;;;;12.80;11.70;;;;;;;10.29;73.97;99359.86;109476;1272;22250;-79
2023/04/15 05:14:19;;;;;;;17.10;14.20;;;;;;;10.25;73.96;99355.86;109450;1272;21999;-78
2023/04/15 05:17:13;;;;;;;13.00;11.70;;;;;;;10.23;74.24;99361.55;109337;1269;22265;-79
2023/04/15 05:19:48;;;;;;;13.30;12.10;;;;;;;10.20;74.22;99367.96;109759;1269;23017;-78
2023/04/15 05:22:21;;;;;;;16.50;15.00;;;;;;;10.18;74.29;99369.26;109997;1269;22007;-79
2023/04/15 05:25:00;;;;;;;19.30;17.50;;;;;;;10.19;74.48;99367.64;109885;1269;22855;-79
2023/04/15 05:27:33;;;;;;;23.00;20.80;;;;;;;10.15;74.55;99366.27;109823;1269;22763;-79
2023/04/15 05:30:16;;;;;;;23.90;21.60;;;;;;;10.14;74.75;99366.67;110079;1269;22048;-79
2023/04/15 05:32:56;;;;;;;23.70;21.40;;;;;;;10.14;74.92;99366.70;109411;1273;21988;-78
2023/04/15 05:35:36;;;;;;;23.60;21.60;;;;;;;10.14;75.03;99368.62;109638;1273;21979;-78
2023/04/15 05:38:29;;;;;;;22.00;19.90;;;;;;;10.12;75.19;99365.92;109385;1274;22199;-79
2023/04/15 05:41:29;;;;;;;21.90;19.80;;;;;;;10.12;75.36;99372.17;109188;1277;22507;-78
2023/04/15 05:44:54;;;;;;;;;;;;;;;;;;;;;
2023/04/15 05:47:32;;;;;;;24.20;22.00;;;;;;;10.14;75.59;99371.73;109472;1274;21974;-78
2023/04/15 05:50:21;;;;;;;21.80;20.00;;;;;;;10.17;75.70;99375.57;109036;1275;21975;-78
2023/04/15 05:53:37;;;;;;;25.70;23.50;;;;;;;10.17;75.85;99377.15;109329;1275;23039;-79
2023/04/15 05:56:43;;;;;;;24.80;22.50;;;;;;;10.16;75.98;99380.70;109265;1278;23730;-78
2023/04/15 05:59:27;;;;;;;24.40;22.30;;;;;;;10.13;76.00;99380.48;109159;1277;23661;-78
2023/04/15 06:02:44;;;;;;;22.70;20.40;;;;;;;10.14;76.12;99381.33;109045;1278;22005;-79
2023/04/15 06:05:48;;;;;;;20.00;17.90;;;;;;;10.15;76.22;99381.97;108996;1278;22405;-79
2023/04/15 06:08:45;;;;;;;20.90;19.00;;;;;;;10.16;76.34;99390.27;109449;1270;22100;-79
2023/04/15 06:11:29;;;;;;;21.60;19.40;;;;;;;10.16;76.52;99393.90;109824;1270;22406;-78
2023/04/15 06:14:16;;;;;;;24.80;22.50;;;;;;;10.18;76.60;99396.41;109389;1270;23046;-79
2023/04/15 06:17:17;;;;;;;25.40;22.80;;;;;;;10.19;76.60;99400.20;109841;1270;21981;-80
2023/04/15 06:20:14;;;;;;;24.90;22.80;;;;;;;10.19;76.66;99402.60;109137;1276;22773;-79
2023/04/15 06:22:54;;;;;;;26.20;23.90;;;;;;;10.19;76.69;99400.16;109361;1276;22044;-79
2023/04/15 06:25:43;;;;;;;28.30;25.50;;;;;;;10.21;76.98;99404.42;109152;1276;22140;-79
2023/04/15 06:28:46;;;;;;;;;;;;;;;;;;;;;
2023/04/15 06:31:38;;;;;;;26.10;23.70;;;;;;;10.26;77.08;99412.15;109213;1270;22611;-79
2023/04/15 06:34:29;;;;;;;23.10;20.90;;;;;;;10.28;77.05;99415.23;109628;1271;21989;-78
2023/04/15 06:37:15;;;;;;;25.00;22.80;;;;;;;10.28;77.19;99415.40;109584;1266;22437;-79
2023/04/15 06:39:56;;;;;;;22.20;20.30;;;;;;;10.30;77.24;99417.70;109949;1266;23803;-79
2023/04/15 06:42:37;;;;;;;21.10;19.00;;;;;;;10.33;77.37;99417.21;110139;1266;23586;-79
2023/04/15 06:45:16;;;;;;;20.80;18.90;;;;;;;10.36;77.35;99423.83;110611;1266;22052;-74
2023/04/15 06:48:03;;;;;;;22.40;20.40;;;;;;;10.40;77.30;99425.21;110748;1265;21984;-81
2023/04/15 06:51:35;;;;;;;22.70;20.80;;;;;;;10.40;77.33;99426.77;110184;1266;21997;-78
2023/04/15 06:55:10;;;;;;;29.70;27.00;;;;;;;10.36;77.50;99432.19;110157;1266;23049;-80
2023/04/15 06:58:21;;;;;;;18.60;16.80;;;;;;;10.36;77.60;99438.61;110423;1266;22034;-78
2023/04/15 07:01:02;;;;;;;17.00;15.00;;;;;;;10.27;77.32;99444.44;110161;1266;22275;-79
2023/04/15 07:03:36;;;;;;;15.00;13.40;;;;;;;10.13;77.00;99450.89;110000;1266;24987;-78
2023/04/15 07:06:12;;;;;;;14.30;12.80;;;;;;;10.05;77.05;99454.75;110268;1266;22001;-80
2023/04/15 07:08:49;;;;;;;12.20;11.00;;;;;;;10.05;77.21;99458.41;110200;1266;23624;-76
2023/04/15 07:11:30;;;;;;;15.40;11.30;;;;;;;10.07;77.25;99465.13;110051;1266;21983;-78
2023/04/15 07:14:11;;;;;;;11.00;9.00;;;;;;;10.09;77.18;99470.23;109424;1270;22429;-80
2023/04/15 07:16:45;;;;;;;11.10;9.30;;;;;;;10.10;77.14;99475.55;109763;1270;22033;-82
2023/04/15 07:19:47;;;;;;;15.50;12.50;;;;;;;10.15;77.34;99484.52;109839;1270;22151;-80
2023/04/15 07:22:28;;;;;;;10.80;9.70;;;;;;;10.18;77.01;99490.09;109808;1270;21976;-80
2023/04/15 07:25:22;;;;;;;14.10;11.00;;;;;;;10.09;76.62;99492.14;110004;1270;22166;-80
2023/04/15 07:27:58;;;;;;;12.80;11.50;;;;;;;10.06;76.69;99492.29;110086;1270;21989;-79
2023/04/15 07:30:30;;;;;;;22.10;19.80;;;;;;;10.07;76.59;99495.50;109950;1270;22026;-79
2023/04/15 07:33:03;;;;;;;28.20;25.30;;;;;;;10.08;76.59;99494.77;110142;1266;21982;-81
2023/04/15 07:35:35;;;;;;;31.40;28.40;;;;;;;10.10;76.44;99495.54;110485;1266;21976;-80
2023/04/15 07:38:12;;;;;;;30.60;27.60;;;;;;;10.12;76.52;99497.38;110402;1266;21981;-81
2023/04/15 07:40:49;;;;;;;24.10;21.70;;;;;;;10.16;76.63;99498.56;110289;1266;21984;-80
2023/04/15 07:43:28;;;;;;;20.60;18.50;;;;;;;10.16;76.37;99502.55;110452;1266;21966;-81
2023/04/15 07:46:32;;;;;;;19.10;17.30;;;;;;;10.11;76.14;99503.16;110083;1266;22254;-80
2023/04/15 07:49:09;;;;;;;21.70;19.40;;;;;;;10.08;76.25;99504.52;110498;1260;23744;-80
2023/04/15 07:51:49;;;;;;;18.80;16.30;;;;;;;10.10;76.26;99509.27;110420;1266;21994;-80
2023/04/15 07:54:38;;;;;;;40.80;34.00;;;;;;;10.14;76.25;99514.31;110269;1266;22749;-79
2023/04/15 07:57:23;;;;;;;22.20;20.00;;;;;;;10.12;75.91;99520.98;110417;1266;21980;-80
2023/04/15 08:00:04;;;;;;;19.00;16.40;;;;;;;10.09;75.87;99523.42;109756;1270;21991;-81
2023/04/15 08:02:53;;;;;;;23.60;21.40;;;;;;;10.05;75.73;99526.23;109896;1270;22740;-83
2023/04/15 08:05:53;;;;;;;;;;;;;;;;;;;;;
2023/04/15 08:08:32;;;;;;;27.90;24.90;;;;;;;10.03;76.02;99533.96;109444;1277;22014;-80
2023/04/15 08:11:09;;;;;;;14.00;12.30;;;;;;;10.04;75.68;99534.43;109238;1277;24352;-79
2023/04/15 08:14:08;;;;;;;17.10;15.50;;;;;;;9.97;75.38;99541.39;109020;1277;21984;-82
2023/04/15 08:16:49;;;;;;;17.50;15.60;;;;;;;9.85;75.30;99533.80;109366;1277;21995;-80
2023/04/15 08:19:41;;;;;;;19.90;17.90;;;;;;;9.88;75.84;99526.84;109899;1272;22005;-80
2023/04/15 08:22:25;;;;;;;27.70;21.50;;;;;;;10.03;76.22;99522.66;109729;1272;21995;-79
2023/04/15 08:25:10;;;;;;;32.90;27.10;;;;;;;10.20;76.43;99524.08;109671;1272;22782;-80
2023/04/15 08:27:48;;;;;;;29.60;26.60;;;;;;;10.39;76.63;99526.64;110485;1255;21984;-79
2023/04/15 08:30:41;;;;;;;16.80;15.20;;;;;;;10.52;76.30;99524.09;110138;1266;23702;-80
2023/04/15 08:33:32;;;;;;;9.40;8.50;;;;;;;10.60;75.81;99529.98;109808;1270;23013;-79
2023/04/15 08:36:16;;;;;;;18.80;13.60;;;;;;;10.66;75.46;99530.54;109594;1270;21991;-80
2023/04/15 08:39:00;;;;;;;18.20;13.90;;;;;;;10.66;74.82;99537.64;109556;1276;23676;-81
2023/04/15 08:42:04;;;;;;;27.50;19.50;;;;;;;10.58;74.24;99540.50;109437;1276;22172;-79
2023/04/15 08:44:50;;;;;;;34.40;20.60;;;;;;;10.50;74.16;99543.16;109284;1276;22055;-80
2023/04/15 08:47:41;;;;;;;22.00;14.50;;;;;;;10.49;73.93;99545.45;109357;1276;21953;-79
2023/04/15 08:50:39;;;;;;;22.00;16.60;;;;;;;10.45;73.89;99550.02;109349;1276;23644;-79
2023/04/15 08:53:28;;;;;;;;;;;;;;;10.44;73.92;99556.31;109281;1276;22768;-80
2023/04/15 08:56:40;;;;;;;22.10;16.80;;;;;;;10.33;74.01;99555.81;109081;1280;21973;-81
2023/04/15 08:59:41;;;;;;;;;;;;;;;;;;;;;
2023/04/15 09:02:37;;;;;;;25.50;22.20;;;;;;;10.34;74.31;99552.30;109301;1272;22470;-80
2023/04/15 09:05:31;;;;;;;21.80;19.70;;;;;;;10.43;74.38;99548.71;109755;1271;21986;-79
2023/04/15 09:08:11;;;;;;;19.00;17.10;;;;;;;10.50;74.32;99552.54;109738;1271;22447;-79
2023/04/15 09:10:52;;;;;;;17.40;15.70;;;;;;;10.56;74.38;99552.93;109976;1271;22659;-80
2023/04/15 09:13:47;;;;;;;21.80;19.50;;;;;;;10.60;74.10;99557.11;109334;1270;22746;-79
2023/04/15 09:17:06;;;;;;;18.60;16.70;;;;;;;10.62;74.06;99561.89;110262;1270;21990;-81
2023/04/15 09:19:40;;;;;;;20.10;17.70;;;;;;;10.64;73.99;99560.36;109691;1270;24317;-78
2023/04/15 09:22:31;;;;;;;18.90;17.10;;;;;;;10.67;74.03;99558.32;110129;1270;21998;-80
2023/04/15 09:25:23;;;;;;;17.40;15.70;;;;;;;10.72;74.03;99562.38;109966;1270;21975;-81
2023/04/15 09:28:01;;;;;;;21.30;19.00;;;;;;;10.73;73.74;99561.49;110124;1268;22022;-80
2023/04/15 09:30:36;;;;;;;26.50;21.70;;;;;;;10.70;73.61;99561.27;109961;1270;21976;-83
2023/04/15 09:33:14;;;;;;;26.70;23.80;;;;;;;10.70;73.64;99559.51;111692;1253;22428;-79
2023/04/15 09:36:04;;;;;;;23.90;21.30;;;;;;;10.76;73.60;99556.28;110983;1262;22440;-80
2023/04/15 09:38:58;;;;;;;20.00;17.80;;;;;;;10.82;73.72;99559.62;110827;1262;21986;-82
2023/04/15 09:42:16;;;;;;;17.70;15.80;;;;;;;10.89;73.67;99560.99;110878;1262;21976;-81
2023/04/15 09:44:54;;;;;;;21.20;19.10;;;;;;;10.95;73.70;99569.92;110883;1262;21984;-82
2023/04/15 09:47:38;;;;;;;21.50;19.40;;;;;;;11.03;73.53;99573.50;110877;1262;23024;-82
2023/04/15 09:50:56;;;;;;;17.90;16.20;;;;;;;11.09;73.44;99577.39;110984;1262;21953;-81
2023/04/15 09:53:47;;;;;;;19.90;17.90;;;;;;;11.09;73.19;99580.50;110919;1262;23849;-83
2023/04/15 09:56:26;;;;;;;27.70;24.80;;;;;;;11.12;73.23;99581.25;110838;1262;22077;-83
2023/04/15 09:59:24;;;;;;;19.50;15.70;;;;;;;11.19;73.29;99580.88;110886;1262;22350;-83
2023/04/15 10:02:37;;;;;;;17.40;15.30;;;;;;;11.24;73.02;99584.23;110099;1261;22033;-84
2023/04/15 10:05:24;;;;;;;12.70;10.90;;;;;;;11.29;72.77;99588.03;110166;1269;22010;-82
2023/04/15 10:08:25;;;;;;;22.40;20.10;;;;;;;11.29;72.71;99588.88;110403;1269;23032;-80
2023/04/15 10:11:25;;;;;;;18.20;14.40;;;;;;;11.36;72.44;99595.48;110220;1268;21978;-81
2023/04/15 10:14:28;;;;;;;16.50;14.10;;;;;;;11.34;72.42;99593.50;109826;1272;21964;-80
2023/04/15 10:17:26;;;;;;;14.50;13.20;;;;;;;11.39;72.70;99589.06;109498;1276;22002;-81
2023/04/15 10:20:30;;;;;;;17.00;15.20;;;;;;;11.47;72.46;99590.20;109713;1272;22006;-80
2023/04/15 10:23:26;;;;;;;21.40;18.20;;;;;;;11.54;72.38;99588.62;109668;1265;21985;-79
2023/04/15 10:26:20;;;;;;;20.00;16.90;;;;;;;11.65;72.44;99586.80;109581;1272;23048;-81
2023/04/15 10:29:13;;;;;;;28.40;24.10;;;;;;;11.75;72.03;99588.52;109752;1272;22491;-81
2023/04/15 10:32:15;;;;;;;23.90;20.10;;;;;;;11.87;72.17;99588.59;109706;1272;22075;-81
2023/04/15 10:35:08;;;;;;;22.20;18.00;;;;;;;12.01;72.02;99592.70;109908;1266;21982;-82
2023/04/15 10:37:47;;;;;;;19.50;16.80;;;;;;;12.12;71.71;99591.72;110694;1262;23702;-79
2023/04/15 10:40:35;;;;;;;19.60;16.90;;;;;;;12.23;71.14;99592.16;110812;1254;21991;-81
2023/04/15 10:43:34;;;;;;;22.00;18.90;;;;;;;12.28;70.68;99589.94;111016;1250;21969;-81
2023/04/15 10:46:46;;;;;;;20.00;16.40;;;;;;;12.32;70.10;99594.59;110883;1262;21976;-82
2023/04/15 10:49:34;;;;;;;19.60;17.50;;;;;;;12.31;69.55;99594.52;110810;1263;22434;-82
2023/04/15 10:52:28;;;;;;;23.60;21.10;;;;;;;12.34;69.31;99595.52;110979;1263;23700;-81
2023/04/15 10:55:38;;;;;;;18.00;16.20;;;;;;;12.39;69.01;99604.16;111025;1261;21963;-82
2023/04/15 11:02:06;;;;;;;24.90;22.30;;;;;;;12.42;68.49;99605.91;110184;1258;21982;-82
2023/04/15 11:04:56;;;;;;;19.40;17.40;;;;;;;12.44;68.10;99603.89;109875;1269;22901;-80
2023/04/15 11:07:48;;;;;;;20.20;16.70;;;;;;;12.47;67.91;99606.13;110044;1269;23710;-78
2023/04/15 11:10:56;;;;;;;17.00;14.90;;;;;;;12.46;67.27;99607.95;109970;1270;21944;-80
2023/04/15 11:14:06;;;;;;;15.90;14.30;;;;;;;12.42;66.64;99607.30;109930;1270;21989;-82
2023/04/15 11:16:58;;;;;;;;;;;;;;;;;;;;;
2023/04/15 11:19:38;;;;;;;17.30;15.10;;;;;;;12.36;65.89;99607.31;110394;1267;22009;-80
2023/04/15 11:22:26;;;;;;;15.70;14.10;;;;;;;12.38;65.65;99608.38;110093;1264;21995;-79
2023/04/15 11:25:09;;;;;;;14.90;13.40;;;;;;;12.44;65.23;99610.13;110144;1269;22049;-83
2023/04/15 11:27:55;;;;;;;14.30;12.30;;;;;;;12.48;64.70;99609.75;109824;1269;22003;-83
2023/04/15 11:31:03;;;;;;;17.20;14.50;;;;;;;12.45;63.94;99615.13;110130;1269;22005;-83
2023/04/15 11:34:02;;;;;;;19.10;15.70;;;;;;;12.38;63.99;99620.29;110170;1268;23081;-79
2023/04/15 11:37:10;;;;;;;18.70;14.70;;;;;;;12.30;63.82;99620.88;110459;1265;22353;-79
2023/04/15 11:40:10;;;;;;;19.90;16.70;;;;;;;12.25;64.30;99622.02;110413;1265;21971;-79
2023/04/15 11:43:35;;;;;;;19.20;16.40;;;;;;;12.21;64.37;99623.98;110724;1265;22670;-79
2023/04/15 11:46:46;;;;;;;19.50;17.60;;;;;;;12.14;64.64;99631.53;110700;1264;23118;-84
2023/04/15 11:49:45;;;;;;;18.50;16.80;;;;;;;12.12;64.97;99637.58;110579;1264;21969;-82
2023/04/15 11:52:21;;;;;;;16.50;14.90;;;;;;;12.10;65.01;99637.36;110805;1265;21999;-80
2023/04/15 11:55:08;;;;;;;18.60;16.70;;;;;;;12.01;64.90;99636.80;111143;1262;21991;-79
2023/04/15 11:57:50;;;;;;;16.00;14.60;;;;;;;11.93;65.05;99637.73;110744;1262;21977;-79
2023/04/15 12:00:24;;;;;;;17.10;15.40;;;;;;;11.91;65.41;99643.96;110229;1267;23595;-80
2023/04/15 12:04:04;;;;;;;18.40;15.20;;;;;;;11.91;65.76;99643.27;110586;1264;21965;-80
2023/04/15 12:06:55;;;;;;;18.20;15.90;;;;;;;11.92;66.25;99644.95;110684;1268;22024;-78
2023/04/15 12:09:38;;;;;;;16.90;14.20;;;;;;;12.00;66.50;99643.10;109797;1260;22019;-78
2023/04/15 12:12:38;;;;;;;15.10;12.20;;;;;;;12.05;66.29;99647.55;110344;1269;22144;-78
2023/04/15 12:15:14;;;;;;;15.20;12.20;;;;;;;12.05;65.90;99651.23;109311;1279;23052;-79
2023/04/15 12:17:55;;;;;;;18.00;15.30;;;;;;;12.03;65.57;99649.58;108983;1281;22007;-79
2023/04/15 12:20:43;;;;;;;18.80;15.80;;;;;;;12.03;65.21;99648.18;108864;1277;22405;-80
2023/04/15 12:23:21;;;;;;;12.00;10.80;;;;;;;12.07;65.35;99645.55;109011;1282;21603;-79
2023/04/15 12:25:51;;;;;;;10.10;9.10;;;;;;;12.06;64.67;99643.64;108999;1283;22021;-79
2023/04/15 12:28:37;;;;;;;7.90;7.20;;;;;;;12.03;64.37;99641.94;108744;1283;21995;-80
2023/04/15 12:31:27;;;;;;;;;;;;;;;12.05;64.54;99643.02;108785;1283;21976;-79
2023/04/15 12:35:11;;;;;;;6.70;5.80;;;;;;;12.08;64.91;99642.67;109417;1274;23145;-80
2023/04/15 12:38:00;;;;;;;8.40;6.60;;;;;;;12.14;64.58;99645.89;110130;1270;22219;-84
2023/04/15 12:41:02;;;;;;;11.00;6.60;;;;;;;12.23;64.31;99641.68;109929;1270;22731;-82
2023/04/15 12:43:41;;;;;;;7.10;5.50;;;;;;;12.34;63.86;99637.60;109809;1270;22012;-79
2023/04/15 12:46:12;;;;;;;7.40;6.00;;;;;;;12.31;63.10;99634.95;109804;1269;22027;-83
2023/04/15 12:48:59;;;;;;;10.00;6.00;;;;;;;12.28;63.00;99632.66;109255;1277;23009;-81
2023/04/15 12:51:59;;;;;;;8.20;5.80;;;;;;;12.33;63.08;99640.95;109351;1275;23710;-80
2023/04/15 12:54:59;;;;;;;7.80;6.40;;;;;;;12.41;63.28;99643.48;109706;1275;22006;-80
2023/04/15 12:57:50;;;;;;;7.80;6.90;;;;;;;12.55;63.29;99643.77;109628;1275;22000;-79